createdAt,value
2022-11-25T00:04:22.875Z,4.5
2022-11-25T00:09:21.224Z,4.5
2022-11-25T00:14:19.611Z,4.5
2022-11-25T00:19:17.867Z,4.4
2022-11-25T00:24:15.931Z,4.3
2022-11-25T00:29:14.232Z,4.3
2022-11-25T00:34:12.483Z,4.3
2022-11-25T00:39:10.679Z,4.4
2022-11-25T00:44:08.882Z,4.3
2022-11-25T00:49:07.048Z,4.3
2022-11-25T00:54:05.264Z,4.3
2022-11-25T00:59:03.339Z,4.3
2022-11-25T01:04:01.544Z,4.3
2022-11-25T01:08:59.672Z,4.3
2022-11-25T01:14:01.324Z,4.3
2022-11-25T01:18:56.407Z,4.3
2022-11-25T01:23:54.704Z,4.3
2022-11-25T01:28:52.757Z,4.3
2022-11-25T01:33:50.926Z,4.2
2022-11-25T01:38:49.067Z,4.2
2022-11-25T01:43:47.113Z,4.1
2022-11-25T01:48:45.283Z,4.1
2022-11-25T01:53:43.323Z,4
2022-11-25T01:58:41.524Z,4
2022-11-25T02:03:39.692Z,4
2022-11-25T02:08:37.014Z,3.9
2022-11-25T02:13:35.064Z,3.9
2022-11-25T02:18:33.122Z,3.6
2022-11-25T02:23:31.394Z,3.6
2022-11-25T02:28:29.501Z,3.7
2022-11-25T02:33:27.858Z,3.7
2022-11-25T02:38:26.077Z,3.8
2022-11-25T02:43:24.393Z,3.9
2022-11-25T02:48:34.689Z,4
2022-11-25T02:53:20.788Z,4
2022-11-25T02:58:18.846Z,4
2022-11-25T03:03:16.835Z,4.1
2022-11-25T03:08:15.011Z,4.1
2022-11-25T03:13:13.283Z,4.1
2022-11-25T03:18:11.383Z,4.2
2022-11-25T03:23:09.798Z,4
2022-11-25T03:28:08.113Z,4
2022-11-25T03:33:06.320Z,4.2
2022-11-25T03:38:04.513Z,4.2
2022-11-25T03:43:02.801Z,4.1
2022-11-25T03:48:01.086Z,4.2
2022-11-25T03:52:59.228Z,4.1
2022-11-25T03:57:57.360Z,4
2022-11-25T04:02:55.385Z,3.8
2022-11-25T04:07:57.657Z,3.9
2022-11-25T04:12:51.693Z,3.8
2022-11-25T04:17:49.934Z,3.9
2022-11-25T04:22:48.200Z,3.9
2022-11-25T04:27:46.386Z,3.9
2022-11-25T04:32:44.588Z,3.8
2022-11-25T04:37:42.409Z,3.6
2022-11-25T04:42:40.390Z,3.2
2022-11-25T04:47:38.468Z,3.2
2022-11-25T04:52:36.531Z,3.2
2022-11-25T04:57:34.857Z,3.3
2022-11-25T05:02:33.490Z,3.5
2022-11-25T05:07:31.731Z,3.5
2022-11-25T05:12:30.095Z,3.6
2022-11-25T05:17:28.729Z,3.7
2022-11-25T05:22:27.145Z,3.8
2022-11-25T05:27:25.319Z,3.5
2022-11-25T05:32:23.429Z,3.5
2022-11-25T05:37:24.474Z,3.5
2022-11-25T05:42:19.883Z,3.5
2022-11-25T05:47:18.454Z,3.6
2022-11-25T05:52:16.847Z,3.9
2022-11-25T05:57:15.195Z,4.2
2022-11-25T06:02:13.725Z,4.4
2022-11-25T06:07:12.224Z,4.7
2022-11-25T06:12:10.774Z,5.1
2022-11-25T06:17:09.309Z,5.3
2022-11-25T06:22:07.635Z,5.4
2022-11-25T06:27:06.084Z,5.9
2022-11-25T06:32:04.665Z,6
2022-11-25T06:37:03.362Z,6.6
2022-11-25T06:42:02.534Z,7.2
2022-11-25T06:47:01.226Z,7.4
2022-11-25T06:52:02.103Z,10.8
2022-11-25T06:57:07.000Z,16.5
2022-11-25T07:02:08.795Z,19.2
2022-11-25T07:07:09.291Z,21.3
2022-11-25T07:12:09.519Z,23.1
2022-11-25T07:17:12.097Z,24.3
2022-11-25T07:22:08.665Z,25.6
2022-11-25T07:27:08.046Z,26.5
2022-11-25T07:32:10.397Z,27.4
2022-11-25T07:37:06.046Z,27
2022-11-25T07:41:58.824Z,24.2
2022-11-25T07:46:55.661Z,23.2
2022-11-25T07:51:56.537Z,26.2
2022-11-25T07:56:56.699Z,25.1
2022-11-25T08:01:47.776Z,19.2
2022-11-25T08:06:43.830Z,16.2
2022-11-25T08:11:40.096Z,14.8
2022-11-25T08:16:36.626Z,13.2
2022-11-25T08:21:34.533Z,13.1
2022-11-25T08:26:33.259Z,13.3
2022-11-25T08:31:30.778Z,12.6
2022-11-25T08:36:29.749Z,12.5
2022-11-25T08:41:26.727Z,11.3
2022-11-25T08:46:28.909Z,16.1
2022-11-25T08:51:28.592Z,18.7
2022-11-25T08:56:31.314Z,22.2
2022-11-25T09:01:30.520Z,22.7
2022-11-25T09:06:32.078Z,25.3
2022-11-25T09:11:31.623Z,26.2
2022-11-25T09:16:30.607Z,27
2022-11-25T09:21:29.121Z,27.6
2022-11-25T09:26:25.364Z,26.1
2022-11-25T09:31:17.460Z,21.2
2022-11-25T09:36:14.153Z,20
2022-11-25T09:41:11.940Z,18.9
2022-11-25T09:46:08.531Z,17.4
2022-11-25T09:51:09.003Z,20.7
2022-11-25T09:56:11.058Z,24.8
2022-11-25T10:01:10.526Z,24
2022-11-25T10:06:04.342Z,20.1
2022-11-25T10:11:00.975Z,18.8
2022-11-25T10:15:58.792Z,18.6
2022-11-25T10:20:56.366Z,17.6
2022-11-25T10:25:53.585Z,16.2
2022-11-25T10:30:51.229Z,15.9
2022-11-25T10:35:49.396Z,15
2022-11-25T10:40:47.047Z,14.4
2022-11-25T10:45:45.359Z,14.3
2022-11-25T10:50:42.874Z,13.3
2022-11-25T10:55:40.564Z,12.6
2022-11-25T11:00:38.640Z,12.3
2022-11-25T11:05:36.326Z,12.3
2022-11-25T11:10:34.860Z,12.6
2022-11-25T11:15:33.140Z,12.6
2022-11-25T11:20:31.239Z,12.1
2022-11-25T11:25:28.834Z,11.5
2022-11-25T11:30:27.192Z,11.4
2022-11-25T11:35:25.190Z,11.1
2022-11-25T11:40:23.567Z,10.9
2022-11-25T11:45:21.922Z,10.7
2022-11-25T11:50:20.004Z,10.5
2022-11-25T11:55:18.072Z,10.2
2022-11-25T12:00:16.439Z,10.4
2022-11-25T12:05:15.050Z,10.6
2022-11-25T12:10:13.358Z,10.4
2022-11-25T12:15:11.667Z,10.3
2022-11-25T12:20:09.759Z,10
2022-11-25T12:25:07.761Z,9.9
2022-11-25T12:30:06.072Z,9.8
2022-11-25T12:35:04.616Z,9.8
2022-11-25T12:40:03.069Z,9.7
2022-11-25T12:45:01.538Z,9.8
2022-11-25T12:50:00.182Z,10
2022-11-25T12:54:58.842Z,10.2
2022-11-25T13:00:11.477Z,10.4
2022-11-25T13:04:58.064Z,10.3
2022-11-25T13:09:54.475Z,10.3
2022-11-25T13:14:53.189Z,10.1
2022-11-25T13:19:50.963Z,10.3
2022-11-25T13:24:49.487Z,10.5
2022-11-25T13:29:47.773Z,10.3
2022-11-25T13:34:45.892Z,10.1
2022-11-25T13:39:44.339Z,10
2022-11-25T13:44:42.586Z,9.8
2022-11-25T13:49:40.653Z,9.5
2022-11-25T13:54:39.202Z,9.2
2022-11-25T13:59:37.558Z,9.1
2022-11-25T14:04:35.992Z,8.9
2022-11-25T14:09:34.206Z,8.9
2022-11-25T14:14:32.476Z,8.8
2022-11-25T14:24:29.475Z,8.2
2022-11-25T14:29:27.678Z,7.9
2022-11-25T14:34:25.792Z,7.4
2022-11-25T14:39:23.928Z,7.3
2022-11-25T14:44:22.314Z,7.1
2022-11-25T14:49:44.016Z,7.1
2022-11-25T14:54:18.363Z,7
2022-11-25T14:59:16.756Z,6.8
2022-11-25T15:04:14.833Z,6.6
2022-11-25T15:09:13.086Z,6.5
2022-11-25T15:14:11.270Z,6.3
2022-11-25T15:19:09.484Z,6.1
2022-11-25T15:24:07.733Z,5.9
2022-11-25T15:29:05.931Z,5.8
2022-11-25T15:34:04.246Z,5.7
2022-11-25T15:39:02.646Z,5.7
2022-11-25T15:44:01.002Z,5.7
2022-11-25T15:48:59.339Z,5.5
2022-11-25T15:53:57.571Z,5.4
2022-11-25T15:59:00.219Z,5.2
2022-11-25T16:03:53.924Z,4.8
2022-11-25T16:08:51.590Z,4.3
2022-11-25T16:13:49.392Z,3.7
2022-11-25T16:18:47.453Z,3
2022-11-25T16:23:45.543Z,2.7
2022-11-25T16:28:43.674Z,2.4
2022-11-25T16:33:41.775Z,2.1
2022-11-25T16:38:39.829Z,1.9
2022-11-25T16:43:37.656Z,1.8
2022-11-25T16:48:35.792Z,1.7
2022-11-25T16:53:33.878Z,1.8
2022-11-25T16:58:32.041Z,2
2022-11-25T17:03:30.347Z,2.2
2022-11-25T17:08:28.899Z,2.3
2022-11-25T17:13:27.550Z,2.4
2022-11-25T17:18:25.926Z,2.3
2022-11-25T17:23:24.011Z,2.4
2022-11-25T17:28:22.528Z,2.6
2022-11-25T17:33:21.029Z,2.6
2022-11-25T17:38:19.310Z,2.7
2022-11-25T17:43:17.716Z,2.8
2022-11-25T17:48:16.311Z,3
2022-11-25T17:53:14.917Z,3
2022-11-25T17:58:13.272Z,2.7
2022-11-25T18:03:11.095Z,2
2022-11-25T18:08:09.021Z,1.7
2022-11-25T18:13:07.093Z,1.5
2022-11-25T18:18:05.753Z,1.4
2022-11-25T18:23:03.691Z,1.1
2022-11-25T18:28:01.554Z,0.9
2022-11-25T18:32:59.752Z,0.8
2022-11-25T18:37:58.017Z,0.7
2022-11-25T18:42:56.036Z,0.6
2022-11-25T18:47:54.164Z,0.5
2022-11-25T18:52:52.208Z,0.3
2022-11-25T18:57:50.503Z,0.3
2022-11-25T19:02:48.641Z,0.3
2022-11-25T19:07:47.411Z,0.3
2022-11-25T19:12:45.399Z,0.1
2022-11-25T19:17:43.992Z,0
2022-11-25T19:22:42.970Z,0.1
2022-11-25T19:27:41.287Z,0
2022-11-25T19:32:39.601Z,-0.1
2022-11-25T19:37:38.004Z,-0.1
2022-11-25T19:42:36.340Z,-0.3
2022-11-25T19:47:34.416Z,-0.4
2022-11-25T19:52:32.723Z,-0.4
2022-11-25T19:57:31.143Z,-0.4
2022-11-25T20:02:30.026Z,-0.5
2022-11-25T20:07:28.336Z,-0.6
2022-11-25T20:12:26.283Z,-0.7
2022-11-25T20:17:24.641Z,-0.8
2022-11-25T20:22:22.955Z,-0.7
2022-11-25T20:27:21.266Z,-0.9
2022-11-25T20:32:19.640Z,-0.7
2022-11-25T20:37:18.025Z,-0.7
2022-11-25T20:42:16.097Z,-0.8
2022-11-25T20:47:14.523Z,-0.8
2022-11-25T20:52:12.731Z,-0.8
2022-11-25T20:57:11.161Z,-0.9
2022-11-25T21:02:09.596Z,-0.8
2022-11-25T21:07:07.758Z,-0.8
2022-11-25T21:12:06.119Z,-0.9
2022-11-25T21:17:04.303Z,-0.9
2022-11-25T21:22:02.387Z,-0.9
2022-11-25T21:27:00.569Z,-1
2022-11-25T21:31:59.044Z,-1
2022-11-25T21:36:57.280Z,-1
2022-11-25T21:41:55.444Z,-1.1
2022-11-25T21:46:53.679Z,-1.3
2022-11-25T21:51:51.748Z,-1.2
2022-11-25T21:56:50.123Z,-1.1
2022-11-25T22:01:48.547Z,-1.2
2022-11-25T22:06:46.731Z,-1.3
2022-11-25T22:11:44.945Z,-1.2
2022-11-25T22:16:43.365Z,-1.3
2022-11-25T22:21:41.721Z,-1.4
2022-11-25T22:26:39.938Z,-1.3
2022-11-25T22:31:38.233Z,-1.5
2022-11-25T22:36:36.972Z,-1.3
2022-11-25T22:46:33.598Z,-1.5
2022-11-25T22:51:32.071Z,-1.6
2022-11-25T22:56:30.347Z,-1.6
2022-11-25T23:01:28.942Z,-1.7
2022-11-25T23:06:27.161Z,-1.7
2022-11-25T23:11:25.373Z,-1.7
2022-11-25T23:16:23.756Z,-1.7
2022-11-25T23:21:21.917Z,-1.7
2022-11-25T23:26:20.143Z,-1.7
2022-11-25T23:31:18.269Z,-1.7
2022-11-25T23:36:16.481Z,-1.8
2022-11-25T23:41:14.797Z,-1.8
2022-11-25T23:46:12.885Z,-1.9
2022-11-25T23:51:11.044Z,-1.9
2022-11-25T23:56:09.114Z,-2
